Time;durP1;ratioP1;P1;durP2;ratioP2;P2;SDS_P1;SDS_P2;PMS_P1;PMS_P2;Temp;Humidity;BMP_temperature;BMP_pressure;BME280_temperature;BME280_humidity;BME280_pressure;Samples;Min_cycle;Max_cycle;Signal;HPM_P1;HPM_P2
2023/05/30 00:02:20;;;;;;;5.35;1.20;;;21.30;52.40;;;;;;5072295;28;20189;-61
2023/05/30 00:04:46;;;;;;;6.30;1.38;;;21.30;52.40;;;;;;5072498;28;20527;-61
2023/05/30 00:07:12;;;;;;;4.70;1.00;;;21.30;52.40;;;;;;5071236;28;20090;-61
2023/05/30 00:09:38;;;;;;;4.38;0.90;;;21.30;52.50;;;;;;5074081;28;20049;-61
2023/05/30 00:12:04;;;;;;;5.63;1.23;;;21.30;52.50;;;;;;5076186;28;20178;-60
2023/05/30 00:14:29;;;;;;;5.00;1.25;;;21.30;52.50;;;;;;5073727;28;20044;-61
2023/05/30 00:16:56;;;;;;;3.35;1.00;;;21.30;52.50;;;;;;5076139;28;20045;-61
2023/05/30 00:19:22;;;;;;;3.83;1.15;;;21.30;52.50;;;;;;5075612;28;20048;-61
2023/05/30 00:21:48;;;;;;;5.07;1.33;;;21.20;52.50;;;;;;5073857;28;20090;-61
2023/05/30 00:24:13;;;;;;;3.78;1.27;;;21.20;52.50;;;;;;5075938;28;20075;-61
2023/05/30 00:26:39;;;;;;;3.35;1.20;;;21.20;52.50;;;;;;5074307;28;20515;-61
2023/05/30 00:29:04;;;;;;;3.92;1.05;;;21.20;52.50;;;;;;5075123;28;20051;-61
2023/05/30 00:31:30;;;;;;;3.88;1.23;;;21.20;52.50;;;;;;5075480;28;20064;-61
2023/05/30 00:33:56;;;;;;;7.03;1.10;;;21.20;52.50;;;;;;5075862;28;20048;-61
2023/05/30 00:36:21;;;;;;;3.42;1.00;;;21.20;52.50;;;;;;5074781;28;20036;-61
2023/05/30 00:38:47;;;;;;;3.13;1.00;;;21.20;52.50;;;;;;5076068;28;20528;-61
2023/05/30 00:41:13;;;;;;;4.88;1.35;;;21.20;52.50;;;;;;5075648;28;20043;-61
2023/05/30 00:43:38;;;;;;;5.38;1.30;;;21.20;52.50;;;;;;5074759;28;20128;-61
2023/05/30 00:46:04;;;;;;;3.50;1.20;;;21.20;52.50;;;;;;5075455;28;20040;-61
2023/05/30 00:48:29;;;;;;;4.82;1.23;;;21.20;52.50;;;;;;5075217;28;20110;-61
2023/05/30 00:50:55;;;;;;;4.22;1.38;;;21.20;52.50;;;;;;5074767;28;20067;-61
2023/05/30 00:53:21;;;;;;;3.65;1.33;;;21.20;52.50;;;;;;5075501;28;20373;-61
2023/05/30 00:55:46;;;;;;;4.65;1.30;;;21.20;52.50;;;;;;5073587;28;20082;-61
2023/05/30 00:58:12;;;;;;;4.32;1.10;;;21.20;52.60;;;;;;5074937;28;20040;-61
2023/05/30 01:00:38;;;;;;;5.15;1.15;;;21.10;52.50;;;;;;5074337;28;20048;-61
2023/05/30 01:03:04;;;;;;;5.93;1.40;;;21.20;52.60;;;;;;5073184;28;20044;-61
2023/05/30 01:05:31;;;;;;;4.63;1.15;;;21.10;52.60;;;;;;5074859;28;20400;-61
2023/05/30 01:07:56;;;;;;;3.50;1.20;;;21.20;52.70;;;;;;5075321;28;20044;-61
2023/05/30 01:10:22;;;;;;;4.50;1.25;;;21.10;52.60;;;;;;5074058;28;20681;-61
2023/05/30 01:13:11;;;;;;;2.95;1.17;;;21.20;52.60;;;;;;5074118;28;20051;-61
2023/05/30 01:15:40;;;;;;;3.53;1.10;;;21.10;52.60;;;;;;5073591;28;20049;-61
2023/05/30 01:18:09;;;;;;;6.18;1.42;;;21.10;52.60;;;;;;5072934;28;20043;-61
2023/05/30 01:20:40;;;;;;;4.70;1.30;;;21.10;52.60;;;;;;5074051;28;20426;-61
2023/05/30 01:23:38;;;;;;;3.42;1.20;;;21.10;52.60;;;;;;5073526;28;20040;-61
2023/05/30 01:26:33;;;;;;;5.32;1.30;;;21.10;52.60;;;;;;5061777;28;20103;-61
2023/05/30 01:28:59;;;;;;;2.55;0.98;;;21.10;52.70;;;;;;5056683;28;20377;-61
2023/05/30 01:31:25;;;;;;;4.60;1.13;;;21.10;52.70;;;;;;5072769;28;20123;-61
2023/05/30 01:33:50;;;;;;;5.40;1.40;;;21.10;52.70;;;;;;5073721;28;20532;-61
2023/05/30 01:36:17;;;;;;;3.13;1.05;;;21.10;52.70;;;;;;5073174;28;20323;-61
2023/05/30 01:38:43;;;;;;;4.30;1.33;;;21.10;52.80;;;;;;5074099;28;20044;-61
2023/05/30 01:41:19;;;;;;;5.68;1.10;;;21.10;52.80;;;;;;5074235;28;20454;-61
2023/05/30 01:43:50;;;;;;;4.25;1.45;;;21.00;52.80;;;;;;5074745;28;20046;-61
2023/05/30 01:46:30;;;;;;;5.65;1.30;;;21.10;52.80;;;;;;5073292;28;20446;-60
2023/05/30 01:49:23;;;;;;;5.65;1.30;;;21.00;52.80;;;;;;5074563;28;20598;-61
2023/05/30 01:51:55;;;;;;;2.78;1.08;;;21.10;52.80;;;;;;5074084;28;20087;-61
2023/05/30 01:54:20;;;;;;;3.80;1.30;;;21.10;53.50;;;;;;5074066;28;20123;-61
2023/05/30 01:56:52;;;;;;;3.75;1.15;;;21.10;52.90;;;;;;5073251;28;20119;-61
2023/05/30 01:59:18;;;;;;;5.28;1.40;;;21.00;52.80;;;;;;5072039;28;20500;-61
2023/05/30 02:01:43;;;;;;;3.55;1.30;;;21.00;52.80;;;;;;5073244;28;20083;-61
2023/05/30 02:04:10;;;;;;;5.72;1.00;;;21.00;52.80;;;;;;5072196;28;20047;-61
2023/05/30 02:06:36;;;;;;;4.00;1.40;;;21.00;52.90;;;;;;5072714;28;20561;-61
2023/05/30 02:09:02;;;;;;;6.15;1.60;;;21.00;52.90;;;;;;5073970;28;20076;-61
2023/05/30 02:11:28;;;;;;;2.75;1.25;;;21.00;52.90;;;;;;5073683;28;20522;-61
2023/05/30 02:13:53;;;;;;;3.13;1.20;;;21.00;52.90;;;;;;5072935;28;20503;-61
2023/05/30 02:16:19;;;;;;;5.13;1.30;;;20.90;52.80;;;;;;5073682;28;20041;-61
2023/05/30 02:18:45;;;;;;;3.10;1.27;;;21.00;52.90;;;;;;5072485;28;20045;-61
2023/05/30 02:21:12;;;;;;;6.10;1.40;;;21.00;52.90;;;;;;5072747;28;20045;-61
2023/05/30 02:23:37;;;;;;;3.53;1.20;;;21.00;52.90;;;;;;5073926;28;20049;-61
2023/05/30 02:26:03;;;;;;;3.28;1.20;;;21.00;52.90;;;;;;5073559;28;20063;-61
2023/05/30 02:28:29;;;;;;;3.78;1.30;;;20.90;52.90;;;;;;5072282;28;20057;-60
2023/05/30 02:30:55;;;;;;;4.55;1.35;;;20.90;52.90;;;;;;5073837;28;20052;-61
2023/05/30 02:33:20;;;;;;;4.38;1.60;;;20.90;52.90;;;;;;5071190;28;20044;-61
2023/05/30 02:35:46;;;;;;;5.65;1.63;;;20.90;52.90;;;;;;5072833;28;20067;-61
2023/05/30 02:38:11;;;;;;;4.63;1.30;;;20.90;52.90;;;;;;5073173;28;20052;-61
2023/05/30 02:40:37;;;;;;;4.57;1.25;;;20.90;52.90;;;;;;5073385;28;20536;-61
2023/05/30 02:43:02;;;;;;;5.00;1.70;;;20.90;52.90;;;;;;5072461;28;20040;-60
2023/05/30 02:45:28;;;;;;;5.13;1.40;;;20.90;53.00;;;;;;5071724;28;20044;-61
2023/05/30 02:47:54;;;;;;;3.58;1.38;;;20.90;52.90;;;;;;5073275;28;20048;-61
2023/05/30 02:50:19;;;;;;;3.95;1.23;;;20.90;53.00;;;;;;5072386;28;20037;-61
2023/05/30 02:52:45;;;;;;;3.33;1.55;;;20.90;53.00;;;;;;5073301;28;20048;-61
2023/05/30 02:55:12;;;;;;;3.00;1.27;;;20.90;53.00;;;;;;5072052;28;20126;-61
2023/05/30 02:57:38;;;;;;;3.33;1.27;;;20.80;52.90;;;;;;5073173;28;20052;-60
2023/05/30 03:00:05;;;;;;;3.90;1.30;;;20.90;53.00;;;;;;5073247;28;20054;-61
2023/05/30 03:02:31;;;;;;;3.67;1.20;;;20.90;53.00;;;;;;5072269;28;20051;-61
2023/05/30 03:04:57;;;;;;;4.32;1.40;;;20.90;53.10;;;;;;5073174;28;20037;-61
2023/05/30 03:07:25;;;;;;;4.30;1.40;;;20.90;53.00;;;;;;5072706;28;20040;-61
2023/05/30 03:09:50;;;;;;;4.97;1.55;;;20.80;53.00;;;;;;5072456;28;20037;-61
2023/05/30 03:12:16;;;;;;;4.45;1.23;;;20.80;53.00;;;;;;5072710;28;20041;-61
2023/05/30 03:14:41;;;;;;;4.00;1.45;;;20.80;53.00;;;;;;5071886;28;20097;-61
2023/05/30 03:17:08;;;;;;;4.40;1.40;;;20.80;53.10;;;;;;5072015;28;20408;-61
2023/05/30 03:19:33;;;;;;;5.65;1.70;;;20.80;53.10;;;;;;5072994;28;20048;-61
2023/05/30 03:21:59;;;;;;;4.32;1.70;;;20.80;53.10;;;;;;5072879;28;20094;-61
2023/05/30 03:24:26;;;;;;;4.00;1.33;;;20.80;53.10;;;;;;5071819;28;20845;-61
2023/05/30 03:26:52;;;;;;;3.65;1.63;;;20.80;53.10;;;;;;5072391;28;20044;-61
2023/05/30 03:29:18;;;;;;;5.10;1.80;;;20.80;53.10;;;;;;5072641;28;20590;-60
2023/05/30 03:31:44;;;;;;;3.53;1.25;;;20.80;53.20;;;;;;5072162;28;20032;-61
2023/05/30 03:34:09;;;;;;;4.63;1.52;;;20.80;53.10;;;;;;5071160;28;20052;-61
2023/05/30 03:36:35;;;;;;;4.60;1.73;;;20.80;53.10;;;;;;5072373;28;20191;-61
2023/05/30 03:39:01;;;;;;;3.22;1.17;;;20.80;53.20;;;;;;5071828;28;20036;-61
2023/05/30 03:41:26;;;;;;;5.75;1.45;;;20.80;53.10;;;;;;5071174;28;20056;-61
2023/05/30 03:43:52;;;;;;;5.32;1.33;;;20.80;53.20;;;;;;5073221;28;20040;-61
2023/05/30 03:46:19;;;;;;;3.22;1.30;;;20.70;53.10;;;;;;5074729;28;20045;-61
2023/05/30 03:48:47;;;;;;;4.40;1.50;;;20.70;53.10;;;;;;5076801;28;20048;-61
2023/05/30 03:51:13;;;;;;;5.88;1.80;;;20.80;53.20;;;;;;5075126;28;20032;-61
2023/05/30 03:53:39;;;;;;;2.90;1.17;;;20.70;53.20;;;;;;5076027;28;20392;-61
2023/05/30 03:56:06;;;;;;;4.22;1.23;;;20.70;53.20;;;;;;5076296;28;20443;-61
2023/05/30 03:58:32;;;;;;;3.60;1.23;;;20.70;53.20;;;;;;5075922;28;20055;-61
2023/05/30 04:01:00;;;;;;;4.00;1.45;;;20.70;53.20;;;;;;5075615;28;20431;-61
2023/05/30 04:03:26;;;;;;;2.58;1.17;;;20.70;53.20;;;;;;5076000;28;20487;-61
2023/05/30 04:05:53;;;;;;;4.15;1.42;;;20.70;53.20;;;;;;5075063;28;20063;-61
2023/05/30 04:08:18;;;;;;;2.85;1.50;;;20.70;53.20;;;;;;5075826;28;20048;-61
2023/05/30 04:10:44;;;;;;;2.85;1.30;;;20.70;53.20;;;;;;5076187;28;20056;-61
2023/05/30 04:13:10;;;;;;;5.32;1.42;;;20.70;53.20;;;;;;5075332;28;20048;-61
2023/05/30 04:15:35;;;;;;;3.40;1.35;;;20.70;53.90;;;;;;5076061;28;20074;-61
2023/05/30 04:18:01;;;;;;;2.58;1.10;;;20.70;53.20;;;;;;5076386;28;20536;-61
2023/05/30 04:20:27;;;;;;;3.92;1.40;;;20.70;53.20;;;;;;5073794;28;20048;-61
2023/05/30 04:22:52;;;;;;;2.42;1.30;;;20.70;53.30;;;;;;5076083;28;20094;-61
2023/05/30 04:25:18;;;;;;;3.95;1.50;;;20.70;53.30;;;;;;5075660;28;20051;-61
2023/05/30 04:27:44;;;;;;;3.85;1.40;;;20.70;53.30;;;;;;5074892;28;20121;-61
2023/05/30 04:30:10;;;;;;;3.85;1.48;;;20.70;53.30;;;;;;5075616;28;20492;-61
2023/05/30 04:32:36;;;;;;;2.72;1.40;;;20.70;53.30;;;;;;5075670;28;20473;-61
2023/05/30 04:35:07;;;;;;;3.17;1.33;;;20.70;53.30;;;;;;5075114;28;20139;-61
2023/05/30 04:37:33;;;;;;;4.30;1.45;;;20.70;53.30;;;;;;5074511;28;20171;-61
2023/05/30 04:39:59;;;;;;;3.60;1.40;;;20.60;53.30;;;;;;5075663;28;20076;-61
2023/05/30 04:42:28;;;;;;;4.60;1.45;;;20.70;53.40;;;;;;5074865;28;20041;-61
2023/05/30 04:44:54;;;;;;;5.32;1.40;;;20.70;53.40;;;;;;5074298;28;20040;-61
2023/05/30 04:47:24;;;;;;;4.38;1.50;;;20.60;53.30;;;;;;5073914;28;20051;-61
2023/05/30 04:49:53;;;;;;;4.70;1.50;;;20.70;53.40;;;;;;5074910;28;20041;-61
2023/05/30 04:52:23;;;;;;;2.90;1.50;;;20.70;53.40;;;;;;5074943;28;20055;-61
2023/05/30 04:54:49;;;;;;;4.10;1.40;;;20.70;53.70;;;;;;5072653;28;20044;-61
2023/05/30 04:57:15;;;;;;;3.42;1.20;;;20.70;53.50;;;;;;5075042;28;20049;-61
2023/05/30 04:59:40;;;;;;;3.10;1.33;;;20.60;53.40;;;;;;5075644;28;20063;-61
2023/05/30 05:02:08;;;;;;;4.50;1.60;;;20.70;53.50;;;;;;5073021;28;20072;-61
2023/05/30 05:04:33;;;;;;;6.60;1.50;;;20.60;53.40;;;;;;5075249;28;20049;-61
2023/05/30 05:06:59;;;;;;;3.60;1.65;;;20.60;53.40;;;;;;5075150;28;20045;-61
2023/05/30 05:09:25;;;;;;;4.68;1.33;;;20.70;53.50;;;;;;5072904;28;20123;-61
2023/05/30 05:11:51;;;;;;;3.83;1.42;;;20.60;53.40;;;;;;5075400;28;20040;-61
2023/05/30 05:14:17;;;;;;;3.60;1.48;;;20.60;53.50;;;;;;5074875;28;20550;-61
2023/05/30 05:16:42;;;;;;;4.18;1.30;;;20.60;53.50;;;;;;5074304;28;20068;-61
2023/05/30 05:19:08;;;;;;;3.83;1.58;;;20.60;53.50;;;;;;5074919;28;20080;-61
2023/05/30 05:21:33;;;;;;;3.55;1.65;;;20.60;53.60;;;;;;5075003;28;20040;-61
2023/05/30 05:23:59;;;;;;;3.33;1.23;;;20.60;53.50;;;;;;5074278;28;20101;-61
2023/05/30 05:26:27;;;;;;;3.00;1.27;;;20.60;53.50;;;;;;5074830;28;20044;-61
2023/05/30 05:28:53;;;;;;;5.13;1.55;;;20.60;53.50;;;;;;5074580;28;20113;-61
2023/05/30 05:31:18;;;;;;;3.22;1.27;;;20.60;53.60;;;;;;5073970;28;20541;-61
2023/05/30 05:33:44;;;;;;;3.33;1.20;;;20.60;53.50;;;;;;5074847;28;20476;-61
2023/05/30 05:36:10;;;;;;;3.58;1.60;;;20.60;53.60;;;;;;5074216;28;20052;-61
2023/05/30 05:38:36;;;;;;;3.95;1.40;;;20.60;53.60;;;;;;5074109;28;20468;-61
2023/05/30 05:41:02;;;;;;;3.75;1.70;;;20.60;54.30;;;;;;5073175;28;20039;-61
2023/05/30 05:43:27;;;;;;;4.07;1.48;;;20.60;53.60;;;;;;5074516;28;20067;-61
2023/05/30 05:45:53;;;;;;;2.85;1.45;;;20.60;53.60;;;;;;5073923;28;20107;-61
2023/05/30 05:48:18;;;;;;;2.83;1.10;;;20.60;53.70;;;;;;5074137;28;20044;-61
2023/05/30 05:50:44;;;;;;;3.90;1.30;;;20.60;53.60;;;;;;5074574;28;20076;-61
2023/05/30 05:53:09;;;;;;;4.78;1.73;;;20.60;53.60;;;;;;5073408;28;20063;-61
2023/05/30 05:55:35;;;;;;;3.92;1.42;;;20.60;53.60;;;;;;5073240;28;20048;-61
2023/05/30 05:58:00;;;;;;;4.30;1.48;;;20.60;53.70;;;;;;5073601;28;20051;-61
2023/05/30 06:00:27;;;;;;;4.03;1.20;;;20.60;53.70;;;;;;5073946;28;20448;-61
2023/05/30 06:02:52;;;;;;;5.07;1.52;;;20.60;53.70;;;;;;5074333;28;20088;-61
2023/05/30 06:05:18;;;;;;;3.20;1.20;;;20.60;53.70;;;;;;5073331;28;20079;-61
2023/05/30 06:07:43;;;;;;;3.05;1.30;;;20.60;53.70;;;;;;5074038;28;20044;-61
2023/05/30 06:10:09;;;;;;;4.07;1.58;;;20.60;53.80;;;;;;5072764;28;20041;-61
2023/05/30 06:12:35;;;;;;;3.65;1.30;;;20.50;53.70;;;;;;5073264;28;20395;-61
2023/05/30 06:15:00;;;;;;;3.30;1.42;;;20.60;53.70;;;;;;5073906;28;20062;-61
2023/05/30 06:17:27;;;;;;;3.38;1.40;;;20.60;53.80;;;;;;5072629;28;20127;-61
2023/05/30 06:19:52;;;;;;;2.85;1.40;;;20.50;53.70;;;;;;5073154;28;20052;-60
2023/05/30 06:22:18;;;;;;;4.25;1.30;;;20.50;53.70;;;;;;5073591;28;20113;-61
2023/05/30 06:24:44;;;;;;;5.72;1.50;;;20.50;53.70;;;;;;5073669;28;20072;-60
2023/05/30 06:27:09;;;;;;;5.15;1.50;;;20.50;53.80;;;;;;5072425;28;20056;-60
2023/05/30 06:29:35;;;;;;;3.40;1.60;;;20.50;53.70;;;;;;5072393;28;20052;-60
2023/05/30 06:32:01;;;;;;;3.78;1.52;;;20.50;53.80;;;;;;5073528;28;20052;-60
2023/05/30 06:34:27;;;;;;;3.40;1.20;;;20.50;53.80;;;;;;5071360;28;20056;-61
2023/05/30 06:36:52;;;;;;;4.97;1.25;;;20.50;53.80;;;;;;5073626;28;20400;-60
2023/05/30 06:39:18;;;;;;;3.20;1.30;;;20.50;53.70;;;;;;5073356;28;20068;-61
2023/05/30 06:41:44;;;;;;;4.25;1.40;;;20.50;53.80;;;;;;5072840;28;20044;-60
2023/05/30 06:44:10;;;;;;;4.38;1.80;;;20.50;53.80;;;;;;5073301;28;20116;-61
2023/05/30 06:46:35;;;;;;;5.45;1.65;;;20.50;53.80;;;;;;5073466;28;20072;-60
2023/05/30 06:49:01;;;;;;;3.08;1.30;;;20.50;53.80;;;;;;5071534;28;20044;-61
2023/05/30 06:51:27;;;;;;;4.10;1.35;;;20.50;54.40;;;;;;5073024;28;20478;-61
2023/05/30 06:53:52;;;;;;;3.95;1.70;;;20.50;53.80;;;;;;5073331;28;20127;-61
2023/05/30 06:56:18;;;;;;;2.88;1.25;;;20.50;53.80;;;;;;5071187;28;20114;-61
2023/05/30 06:58:43;;;;;;;4.18;1.55;;;20.50;53.80;;;;;;5072063;28;20177;-61
2023/05/30 07:01:10;;;;;;;4.43;1.42;;;20.50;53.80;;;;;;5071525;28;20039;-61
2023/05/30 07:03:35;;;;;;;4.45;1.45;;;20.50;53.80;;;;;;5072407;28;20059;-60
2023/05/30 07:06:02;;;;;;;3.40;1.55;;;20.50;53.80;;;;;;5073076;28;20044;-60
2023/05/30 07:08:27;;;;;;;3.72;1.55;;;20.50;53.80;;;;;;5071971;28;20048;-60
2023/05/30 07:10:53;;;;;;;2.60;1.30;;;20.50;53.80;;;;;;5073116;28;20051;-60
2023/05/30 07:13:18;;;;;;;4.00;1.48;;;20.50;53.80;;;;;;5072832;28;20062;-61
2023/05/30 07:15:44;;;;;;;2.20;1.08;;;20.50;53.80;;;;;;5072435;28;20140;-60
2023/05/30 07:18:09;;;;;;;5.40;1.50;;;20.50;53.80;;;;;;5071741;28;20072;-61
2023/05/30 07:20:35;;;;;;;3.55;1.27;;;20.50;53.80;;;;;;5073010;28;20036;-60
2023/05/30 07:23:01;;;;;;;4.35;1.33;;;20.50;53.70;;;;;;5071802;28;20087;-61
2023/05/30 07:25:26;;;;;;;3.75;1.45;;;20.50;53.80;;;;;;5072535;28;20041;-61
2023/05/30 07:27:52;;;;;;;2.90;1.30;;;20.50;53.70;;;;;;5072565;28;20482;-61
2023/05/30 07:30:17;;;;;;;3.08;1.17;;;20.50;53.80;;;;;;5071564;28;20472;-60
2023/05/30 07:32:43;;;;;;;4.03;1.25;;;20.50;53.80;;;;;;5071582;28;20045;-60
2023/05/30 07:35:08;;;;;;;3.03;1.25;;;20.50;53.80;;;;;;5072310;28;20080;-61
2023/05/30 07:37:37;;;;;;;3.08;1.33;;;20.50;53.80;;;;;;5071706;28;20072;-60
2023/05/30 07:40:07;;;;;;;2.67;1.40;;;20.50;53.80;;;;;;5072649;28;20091;-60
2023/05/30 07:42:38;;;;;;;4.18;1.40;;;20.50;53.80;;;;;;5071499;28;20084;-60
2023/05/30 07:45:04;;;;;;;4.78;1.58;;;20.50;53.90;;;;;;5071773;28;20473;-60
2023/05/30 07:47:30;;;;;;;3.45;1.40;;;20.50;53.90;;;;;;5072298;28;20414;-60
2023/05/30 07:49:56;;;;;;;4.03;1.60;;;20.50;53.90;;;;;;5072623;28;20545;-60
2023/05/30 07:52:21;;;;;;;2.95;1.38;;;20.50;53.90;;;;;;5071634;28;20064;-60
2023/05/30 07:54:48;;;;;;;3.17;1.50;;;20.50;53.90;;;;;;5072647;28;20043;-60
2023/05/30 07:57:13;;;;;;;5.15;1.40;;;20.50;53.90;;;;;;5072341;28;20041;-60
2023/05/30 07:59:42;;;;;;;2.58;1.20;;;20.50;53.90;;;;;;5071577;28;20040;-60
2023/05/30 08:02:07;;;;;;;2.05;1.15;;;20.50;53.90;;;;;;5072316;28;20032;-60
2023/05/30 08:04:33;;;;;;;3.85;1.25;;;20.50;53.90;;;;;;5072420;28;20365;-60
2023/05/30 08:06:59;;;;;;;3.72;1.58;;;20.50;54.00;;;;;;5071697;28;20122;-60
2023/05/30 08:09:25;;;;;;;4.15;1.30;;;20.50;54.00;;;;;;5072290;28;20044;-60
2023/05/30 08:11:52;;;;;;;3.70;1.38;;;20.50;54.00;;;;;;5070475;28;20098;-60
2023/05/30 08:14:17;;;;;;;3.38;1.45;;;20.50;54.00;;;;;;5072030;28;20054;-60
2023/05/30 08:16:43;;;;;;;3.47;1.25;;;20.50;54.00;;;;;;5072410;28;20045;-60
2023/05/30 08:19:08;;;;;;;4.03;1.42;;;20.50;54.00;;;;;;5071283;28;20072;-60
2023/05/30 08:21:37;;;;;;;4.18;1.40;;;20.50;54.00;;;;;;5072268;28;20044;-60
2023/05/30 08:24:03;;;;;;;4.05;1.30;;;20.50;54.10;;;;;;5072383;28;20091;-60
2023/05/30 08:26:30;;;;;;;3.88;1.23;;;20.50;54.10;;;;;;5071276;28;20072;-60
2023/05/30 08:28:56;;;;;;;2.85;1.15;;;20.50;54.10;;;;;;5071804;28;20057;-60
2023/05/30 08:31:22;;;;;;;3.22;1.38;;;20.40;54.00;;;;;;5075721;28;20044;-60
2023/05/30 08:33:47;;;;;;;4.10;1.48;;;20.40;54.10;;;;;;5075241;28;20039;-60
2023/05/30 08:36:13;;;;;;;3.13;1.40;;;20.40;54.10;;;;;;5075487;28;20049;-60
2023/05/30 08:38:38;;;;;;;3.95;1.38;;;20.40;54.10;;;;;;5075973;28;20048;-60
2023/05/30 08:41:04;;;;;;;2.85;1.20;;;20.40;54.10;;;;;;5073788;28;20051;-60
2023/05/30 08:43:30;;;;;;;2.67;1.35;;;20.50;54.20;;;;;;5075268;28;20048;-60
2023/05/30 08:45:56;;;;;;;3.25;1.17;;;20.50;54.20;;;;;;5075821;28;20044;-60
2023/05/30 08:48:23;;;;;;;2.88;1.00;;;20.50;54.20;;;;;;5073445;28;20048;-60
2023/05/30 08:50:48;;;;;;;2.58;1.15;;;20.40;54.20;;;;;;5074603;28;20055;-60
2023/05/30 08:53:14;;;;;;;3.40;1.23;;;20.40;54.20;;;;;;5073809;28;20045;-60
2023/05/30 08:55:58;;;;;;;2.38;1.10;;;20.40;54.20;;;;;;5073554;28;20041;-60
2023/05/30 08:58:29;;;;;;;3.05;1.50;;;20.40;54.30;;;;;;5075014;28;20502;-59
2023/05/30 09:00:54;;;;;;;2.83;1.50;;;20.40;54.30;;;;;;5073479;28;20051;-60
2023/05/30 09:03:20;;;;;;;2.67;1.27;;;20.40;54.60;;;;;;5073849;28;20040;-60
2023/05/30 09:05:46;;;;;;;2.20;1.20;;;20.40;54.20;;;;;;5074300;28;20059;-60
2023/05/30 09:08:12;;;;;;;3.58;1.17;;;20.40;54.20;;;;;;5073961;28;20051;-59
2023/05/30 09:10:41;;;;;;;2.75;1.00;;;20.40;54.30;;;;;;5074966;28;20040;-60
2023/05/30 09:13:06;;;;;;;2.60;1.05;;;20.40;54.30;;;;;;5073633;28;20411;-60
2023/05/30 09:15:32;;;;;;;2.17;1.10;;;20.40;54.30;;;;;;5056373;28;20040;-60
2023/05/30 09:17:57;;;;;;;2.50;1.30;;;20.40;54.30;;;;;;5075251;28;20124;-60
2023/05/30 09:20:23;;;;;;;4.18;1.30;;;20.50;54.30;;;;;;5074740;28;20040;-60
2023/05/30 09:22:50;;;;;;;5.57;1.63;;;20.40;54.20;;;;;;5074023;28;20488;-60
2023/05/30 09:25:15;;;;;;;1.92;0.88;;;20.40;54.20;;;;;;5073589;28;20070;-61
2023/05/30 09:27:45;;;;;;;2.55;1.33;;;20.40;54.20;;;;;;5074758;28;20052;-60
2023/05/30 09:30:12;;;;;;;2.53;1.10;;;20.50;54.30;;;;;;5072915;28;20056;-61
2023/05/30 09:32:38;;;;;;;2.67;1.05;;;20.40;54.30;;;;;;5073797;28;20040;-60
2023/05/30 09:35:06;;;;;;;3.30;1.10;;;20.40;54.30;;;;;;5074776;28;20404;-60
2023/05/30 09:37:43;;;;;;;2.38;1.13;;;20.40;54.30;;;;;;5073816;28;20049;-60
2023/05/30 09:40:10;;;;;;;3.85;1.40;;;20.40;54.30;;;;;;5074492;28;20131;-60
2023/05/30 09:42:45;;;;;;;2.08;1.10;;;20.40;54.30;;;;;;5074364;28;20040;-60
2023/05/30 09:45:15;;;;;;;3.72;1.20;;;20.40;54.40;;;;;;5073708;28;20075;-60
2023/05/30 09:47:42;;;;;;;3.33;1.10;;;20.40;54.40;;;;;;5074433;28;20088;-61
2023/05/30 09:50:08;;;;;;;2.13;1.25;;;20.40;54.40;;;;;;5073539;28;20041;-60
2023/05/30 09:52:35;;;;;;;3.22;1.20;;;20.40;54.50;;;;;;5074185;28;20040;-60
2023/05/30 09:55:05;;;;;;;3.88;1.20;;;20.40;54.40;;;;;;5074547;28;20101;-60
2023/05/30 09:57:31;;;;;;;2.13;1.20;;;20.40;54.40;;;;;;5073742;28;20117;-60
2023/05/30 09:59:57;;;;;;;4.05;1.00;;;20.40;54.40;;;;;;5074440;28;20052;-60
2023/05/30 10:02:23;;;;;;;2.53;0.85;;;20.40;54.40;;;;;;5072905;28;20146;-61
2023/05/30 10:04:51;;;;;;;4.25;1.25;;;20.40;54.50;;;;;;5073546;28;20048;-60
2023/05/30 10:07:19;;;;;;;3.65;1.00;;;20.40;54.60;;;;;;5073440;28;20502;-61
2023/05/30 10:09:46;;;;;;;3.03;1.13;;;20.40;54.50;;;;;;5074323;28;20051;-60
2023/05/30 10:12:12;;;;;;;3.22;1.38;;;20.40;54.60;;;;;;5072897;28;20055;-60
2023/05/30 10:14:38;;;;;;;2.85;1.20;;;20.40;54.60;;;;;;5073878;28;20028;-60
2023/05/30 10:17:05;;;;;;;3.88;1.20;;;20.40;54.50;;;;;;5074001;28;20076;-60
2023/05/30 10:19:42;;;;;;;2.03;0.90;;;20.40;54.60;;;;;;5072820;28;20490;-60
2023/05/30 10:22:08;;;;;;;2.17;1.10;;;20.40;54.60;;;;;;5072377;28;20036;-61
2023/05/30 10:24:33;;;;;;;3.35;1.17;;;20.40;54.60;;;;;;5073688;28;20476;-60
2023/05/30 10:27:03;;;;;;;2.88;1.00;;;20.40;54.60;;;;;;5071676;28;20055;-61
2023/05/30 10:29:31;;;;;;;2.67;1.23;;;20.40;54.60;;;;;;5072059;28;20487;-60
2023/05/30 10:31:57;;;;;;;3.35;1.15;;;20.40;54.60;;;;;;5072284;28;20115;-61
2023/05/30 10:34:27;;;;;;;3.35;1.50;;;20.40;54.60;;;;;;5071302;28;20143;-60
2023/05/30 10:36:53;;;;;;;2.15;1.10;;;20.40;54.60;;;;;;5072418;28;20045;-61
2023/05/30 10:39:37;;;;;;;2.45;0.90;;;20.40;54.60;;;;;;5072737;28;20455;-60
2023/05/30 10:42:14;;;;;;;2.70;1.20;;;20.40;54.60;;;;;;5073261;28;20043;-60
2023/05/30 10:44:49;;;;;;;3.50;1.53;;;20.50;54.70;;;;;;5072460;28;20044;-60
2023/05/30 10:47:47;;;;;;;2.70;1.10;;;20.40;54.70;;;;;;5071286;28;20040;-60
2023/05/30 10:50:17;;;;;;;2.10;0.95;;;20.40;54.70;;;;;;5064367;28;20056;-61
2023/05/30 10:52:42;;;;;;;2.50;1.05;;;20.40;54.60;;;;;;5071367;28;20094;-60
2023/05/30 10:55:11;;;;;;;2.13;0.95;;;20.50;54.60;;;;;;5054037;28;20048;-60
2023/05/30 10:57:37;;;;;;;1.42;0.93;;;20.40;54.60;;;;;;5073372;28;20090;-60
2023/05/30 11:00:18;;;;;;;3.70;1.05;;;20.40;54.60;;;;;;5073100;28;20053;-60
2023/05/30 11:02:48;;;;;;;1.77;1.00;;;20.50;54.60;;;;;;5071122;28;20044;-60
2023/05/30 11:05:23;;;;;;;2.78;1.10;;;20.40;54.60;;;;;;5071782;28;20094;-60
2023/05/30 11:07:48;;;;;;;2.58;0.90;;;20.50;54.60;;;;;;5072225;28;20047;-61
2023/05/30 11:10:15;;;;;;;2.00;0.98;;;20.40;54.60;;;;;;5071403;28;20045;-60
2023/05/30 11:12:44;;;;;;;1.92;0.98;;;20.50;54.60;;;;;;5071560;28;20048;-60
2023/05/30 11:15:17;;;;;;;2.50;0.82;;;20.50;54.70;;;;;;5071906;28;20135;-60
2023/05/30 11:17:43;;;;;;;1.95;1.00;;;20.50;54.60;;;;;;5072690;28;20048;-60
2023/05/30 11:20:14;;;;;;;2.45;0.88;;;20.50;54.60;;;;;;5071535;28;20070;-60
2023/05/30 11:22:41;;;;;;;1.85;1.10;;;20.50;54.60;;;;;;5071986;28;20047;-60
2023/05/30 11:25:23;;;;;;;2.25;0.90;;;20.50;54.60;;;;;;5072644;28;20070;-60
2023/05/30 11:28:04;;;;;;;3.17;1.17;;;20.50;54.70;;;;;;5072621;28;20162;-61
2023/05/30 11:30:35;;;;;;;2.00;0.82;;;20.50;54.70;;;;;;5071810;28;20052;-60
2023/05/30 11:33:00;;;;;;;2.50;1.00;;;20.50;54.70;;;;;;5073098;28;20488;-60
2023/05/30 11:35:26;;;;;;;1.40;0.82;;;20.50;54.70;;;;;;5072360;28;20047;-60
2023/05/30 11:37:56;;;;;;;2.15;1.00;;;20.50;54.70;;;;;;5071725;28;20036;-60
2023/05/30 11:40:22;;;;;;;2.50;1.05;;;20.50;54.70;;;;;;5072522;28;20085;-62
2023/05/30 11:42:54;;;;;;;2.67;0.82;;;20.50;54.60;;;;;;5071765;28;20051;-60
2023/05/30 11:45:26;;;;;;;2.17;1.02;;;20.50;54.60;;;;;;5072245;28;20098;-60
2023/05/30 11:47:52;;;;;;;1.10;0.70;;;20.50;54.60;;;;;;5072747;28;20048;-60
2023/05/30 11:50:19;;;;;;;2.40;0.95;;;20.50;54.60;;;;;;5071738;28;20033;-60
2023/05/30 11:52:45;;;;;;;1.83;0.88;;;20.50;54.60;;;;;;5072568;28;20045;-60
2023/05/30 11:55:11;;;;;;;3.00;0.90;;;20.60;54.70;;;;;;5072300;28;20097;-60
2023/05/30 11:57:36;;;;;;;2.67;1.00;;;20.60;54.70;;;;;;5071886;28;20036;-60
2023/05/30 12:00:07;;;;;;;2.45;0.93;;;20.60;54.70;;;;;;5072651;28;20450;-60
2023/05/30 12:02:33;;;;;;;2.63;0.98;;;20.60;54.70;;;;;;5072472;28;20048;-60
2023/05/30 12:05:01;;;;;;;1.25;0.77;;;20.60;54.70;;;;;;5073616;28;20052;-60
2023/05/30 12:07:27;;;;;;;1.13;0.82;;;20.60;54.60;;;;;;5076078;28;20127;-60
2023/05/30 12:09:52;;;;;;;2.13;0.80;;;20.60;54.60;;;;;;5076448;28;20535;-60
2023/05/30 12:12:18;;;;;;;1.92;1.10;;;20.60;54.60;;;;;;5075425;28;20066;-60
2023/05/30 12:14:55;;;;;;;1.35;0.75;;;20.70;54.70;;;;;;5076448;28;20040;-60
2023/05/30 12:17:21;;;;;;;1.75;0.85;;;20.70;54.70;;;;;;5074688;28;20564;-60
2023/05/30 12:19:57;;;;;;;2.33;0.80;;;20.70;54.70;;;;;;5074142;28;20040;-60
2023/05/30 12:22:23;;;;;;;1.38;0.80;;;20.70;54.70;;;;;;5075539;28;20127;-60
2023/05/30 12:24:49;;;;;;;1.50;0.70;;;20.70;54.70;;;;;;5075863;28;20048;-60
2023/05/30 12:27:18;;;;;;;1.55;0.75;;;20.70;54.70;;;;;;5075313;28;20048;-60
2023/05/30 12:29:44;;;;;;;1.40;0.70;;;20.80;54.70;;;;;;5076156;28;20052;-60
2023/05/30 12:32:10;;;;;;;1.20;0.70;;;20.80;54.70;;;;;;5075103;28;20041;-60
2023/05/30 12:34:42;;;;;;;1.55;0.60;;;20.80;54.70;;;;;;5075851;28;20040;-60
2023/05/30 12:37:11;;;;;;;1.85;0.80;;;20.80;55.40;;;;;;5074271;28;20238;-60
2023/05/30 12:39:52;;;;;;;1.95;0.80;;;20.80;54.70;;;;;;5075224;28;20036;-60
2023/05/30 12:42:27;;;;;;;1.25;0.70;;;20.80;54.70;;;;;;5075790;28;20047;-60
2023/05/30 12:44:56;;;;;;;2.30;0.68;;;20.80;54.60;;;;;;5075721;28;20040;-60
2023/05/30 12:47:22;;;;;;;1.80;0.80;;;20.90;54.70;;;;;;5074657;28;20490;-61
2023/05/30 12:49:48;;;;;;;1.60;0.70;;;20.90;54.70;;;;;;5075774;28;20060;-61